sensor_id;sensor_type;location;lat;lon;timestamp;temperature;humidity
84739;DHT22;74969;44.836;-0.586;2023-12-22T00:01:27;12.10;85.00
84739;DHT22;74969;44.836;-0.586;2023-12-22T00:03:52;12.10;85.20
84739;DHT22;74969;44.836;-0.586;2023-12-22T00:06:18;12.10;85.40
84739;DHT22;74969;44.836;-0.586;2023-12-22T00:08:44;12.10;85.50
84739;DHT22;74969;44.836;-0.586;2023-12-22T00:11:10;12.10;85.50
84739;DHT22;74969;44.836;-0.586;2023-12-22T00:13:35;12.10;85.60
84739;DHT22;74969;44.836;-0.586;2023-12-22T00:16:01;12.10;85.60
84739;DHT22;74969;44.836;-0.586;2023-12-22T00:18:27;12.10;85.60
84739;DHT22;74969;44.836;-0.586;2023-12-22T00:20:52;12.10;85.70
84739;DHT22;74969;44.836;-0.586;2023-12-22T00:23:18;12.10;85.70
84739;DHT22;74969;44.836;-0.586;2023-12-22T00:25:44;12.10;85.80
84739;DHT22;74969;44.836;-0.586;2023-12-22T00:28:09;12.10;85.90
84739;DHT22;74969;44.836;-0.586;2023-12-22T00:30:35;12.10;86.00
84739;DHT22;74969;44.836;-0.586;2023-12-22T00:33:01;12.10;86.00
84739;DHT22;74969;44.836;-0.586;2023-12-22T00:35:27;12.10;85.90
84739;DHT22;74969;44.836;-0.586;2023-12-22T00:37:53;12.10;86.00
84739;DHT22;74969;44.836;-0.586;2023-12-22T00:40:19;12.10;86.00
84739;DHT22;74969;44.836;-0.586;2023-12-22T00:42:45;12.10;85.90
84739;DHT22;74969;44.836;-0.586;2023-12-22T00:45:10;12.20;85.80
84739;DHT22;74969;44.836;-0.586;2023-12-22T00:47:36;12.10;85.90
84739;DHT22;74969;44.836;-0.586;2023-12-22T00:50:03;12.20;85.80
84739;DHT22;74969;44.836;-0.586;2023-12-22T00:52:30;12.20;85.70
84739;DHT22;74969;44.836;-0.586;2023-12-22T00:54:56;12.20;85.70
84739;DHT22;74969;44.836;-0.586;2023-12-22T00:57:22;12.20;85.60
84739;DHT22;74969;44.836;-0.586;2023-12-22T00:59:48;12.20;85.70
84739;DHT22;74969;44.836;-0.586;2023-12-22T01:02:15;12.10;85.60
84739;DHT22;74969;44.836;-0.586;2023-12-22T01:04:41;12.10;85.70
84739;DHT22;74969;44.836;-0.586;2023-12-22T01:07:12;12.10;85.70
84739;DHT22;74969;44.836;-0.586;2023-12-22T01:09:39;12.10;85.70
84739;DHT22;74969;44.836;-0.586;2023-12-22T01:12:05;12.10;85.80
84739;DHT22;74969;44.836;-0.586;2023-12-22T01:14:32;12.10;85.80
84739;DHT22;74969;44.836;-0.586;2023-12-22T01:16:58;12.10;85.80
84739;DHT22;74969;44.836;-0.586;2023-12-22T01:19:26;12.10;85.80
84739;DHT22;74969;44.836;-0.586;2023-12-22T01:21:52;12.10;85.90
84739;DHT22;74969;44.836;-0.586;2023-12-22T01:24:17;12.10;86.00
84739;DHT22;74969;44.836;-0.586;2023-12-22T01:26:43;12.10;85.90
84739;DHT22;74969;44.836;-0.586;2023-12-22T01:29:09;12.10;85.90
84739;DHT22;74969;44.836;-0.586;2023-12-22T01:31:35;12.00;85.90
84739;DHT22;74969;44.836;-0.586;2023-12-22T01:34:00;12.00;86.00
84739;DHT22;74969;44.836;-0.586;2023-12-22T01:36:26;12.00;86.10
84739;DHT22;74969;44.836;-0.586;2023-12-22T01:38:52;12.00;86.00
84739;DHT22;74969;44.836;-0.586;2023-12-22T01:41:17;12.00;86.10
84739;DHT22;74969;44.836;-0.586;2023-12-22T01:43:43;12.00;86.00
84739;DHT22;74969;44.836;-0.586;2023-12-22T01:46:09;12.00;86.10
84739;DHT22;74969;44.836;-0.586;2023-12-22T01:48:36;12.00;86.20
84739;DHT22;74969;44.836;-0.586;2023-12-22T01:51:04;12.00;86.20
84739;DHT22;74969;44.836;-0.586;2023-12-22T01:53:31;12.00;86.10
84739;DHT22;74969;44.836;-0.586;2023-12-22T01:55:58;12.00;86.10
84739;DHT22;74969;44.836;-0.586;2023-12-22T01:58:26;12.00;85.80
84739;DHT22;74969;44.836;-0.586;2023-12-22T02:00:53;12.00;85.50
84739;DHT22;74969;44.836;-0.586;2023-12-22T02:03:19;12.00;85.40
84739;DHT22;74969;44.836;-0.586;2023-12-22T02:05:45;11.90;85.30
84739;DHT22;74969;44.836;-0.586;2023-12-22T02:08:11;11.90;85.30
84739;DHT22;74969;44.836;-0.586;2023-12-22T02:10:38;11.90;85.30
84739;DHT22;74969;44.836;-0.586;2023-12-22T02:13:07;11.80;85.30
84739;DHT22;74969;44.836;-0.586;2023-12-22T02:15:33;11.80;85.30
84739;DHT22;74969;44.836;-0.586;2023-12-22T02:18:26;11.80;85.40
84739;DHT22;74969;44.836;-0.586;2023-12-22T02:20:53;11.80;85.40
84739;DHT22;74969;44.836;-0.586;2023-12-22T02:23:19;11.80;85.40
84739;DHT22;74969;44.836;-0.586;2023-12-22T02:25:44;11.80;85.30
84739;DHT22;74969;44.836;-0.586;2023-12-22T02:28:13;11.80;85.20
84739;DHT22;74969;44.836;-0.586;2023-12-22T02:30:55;11.80;85.30
84739;DHT22;74969;44.836;-0.586;2023-12-22T02:33:22;11.80;85.20
84739;DHT22;74969;44.836;-0.586;2023-12-22T02:35:50;11.80;85.10
84739;DHT22;74969;44.836;-0.586;2023-12-22T02:38:16;11.90;84.90
84739;DHT22;74969;44.836;-0.586;2023-12-22T02:40:43;11.80;84.90
84739;DHT22;74969;44.836;-0.586;2023-12-22T02:43:10;11.80;84.60
84739;DHT22;74969;44.836;-0.586;2023-12-22T02:45:36;11.80;84.80
84739;DHT22;74969;44.836;-0.586;2023-12-22T02:48:02;11.70;84.70
84739;DHT22;74969;44.836;-0.586;2023-12-22T02:50:27;11.70;85.00
84739;DHT22;74969;44.836;-0.586;2023-12-22T02:52:53;11.80;85.00
84739;DHT22;74969;44.836;-0.586;2023-12-22T02:55:19;11.80;85.00
84739;DHT22;74969;44.836;-0.586;2023-12-22T02:57:45;11.80;85.10
84739;DHT22;74969;44.836;-0.586;2023-12-22T03:00:11;11.80;85.10
84739;DHT22;74969;44.836;-0.586;2023-12-22T03:02:37;11.80;85.10
84739;DHT22;74969;44.836;-0.586;2023-12-22T03:05:03;11.80;85.10
84739;DHT22;74969;44.836;-0.586;2023-12-22T03:07:29;11.80;85.20
84739;DHT22;74969;44.836;-0.586;2023-12-22T03:09:54;11.80;85.20
84739;DHT22;74969;44.836;-0.586;2023-12-22T03:12:20;11.80;85.30
84739;DHT22;74969;44.836;-0.586;2023-12-22T03:14:45;11.80;85.20
84739;DHT22;74969;44.836;-0.586;2023-12-22T03:17:11;11.80;85.10
84739;DHT22;74969;44.836;-0.586;2023-12-22T03:19:37;11.70;85.10
84739;DHT22;74969;44.836;-0.586;2023-12-22T03:22:03;11.70;85.10
84739;DHT22;74969;44.836;-0.586;2023-12-22T03:24:28;11.70;85.00
84739;DHT22;74969;44.836;-0.586;2023-12-22T03:26:54;11.70;85.10
84739;DHT22;74969;44.836;-0.586;2023-12-22T03:29:20;11.60;85.10
84739;DHT22;74969;44.836;-0.586;2023-12-22T03:31:46;11.70;85.20
84739;DHT22;74969;44.836;-0.586;2023-12-22T03:34:12;11.70;85.20
84739;DHT22;74969;44.836;-0.586;2023-12-22T03:36:38;11.70;85.10
84739;DHT22;74969;44.836;-0.586;2023-12-22T03:39:03;11.70;85.10
84739;DHT22;74969;44.836;-0.586;2023-12-22T03:41:30;11.80;85.00
84739;DHT22;74969;44.836;-0.586;2023-12-22T03:43:56;11.80;85.00
84739;DHT22;74969;44.836;-0.586;2023-12-22T03:46:22;11.80;85.10
84739;DHT22;74969;44.836;-0.586;2023-12-22T03:48:49;11.80;85.00
84739;DHT22;74969;44.836;-0.586;2023-12-22T03:51:14;11.80;85.10
84739;DHT22;74969;44.836;-0.586;2023-12-22T03:53:41;11.90;85.20
84739;DHT22;74969;44.836;-0.586;2023-12-22T03:56:09;11.80;85.30
84739;DHT22;74969;44.836;-0.586;2023-12-22T03:58:35;11.80;85.50
84739;DHT22;74969;44.836;-0.586;2023-12-22T04:01:01;11.80;85.60
84739;DHT22;74969;44.836;-0.586;2023-12-22T04:03:27;11.80;85.60
84739;DHT22;74969;44.836;-0.586;2023-12-22T04:05:53;11.80;85.60
84739;DHT22;74969;44.836;-0.586;2023-12-22T04:08:18;11.80;85.50
84739;DHT22;74969;44.836;-0.586;2023-12-22T04:10:46;11.80;85.60
84739;DHT22;74969;44.836;-0.586;2023-12-22T04:13:12;11.80;85.50
84739;DHT22;74969;44.836;-0.586;2023-12-22T04:15:38;11.80;85.40
84739;DHT22;74969;44.836;-0.586;2023-12-22T04:18:04;11.90;85.30
84739;DHT22;74969;44.836;-0.586;2023-12-22T04:20:29;11.90;85.30
84739;DHT22;74969;44.836;-0.586;2023-12-22T04:22:55;11.90;85.20
84739;DHT22;74969;44.836;-0.586;2023-12-22T04:25:21;11.90;85.10
84739;DHT22;74969;44.836;-0.586;2023-12-22T04:27:48;11.80;85.30
84739;DHT22;74969;44.836;-0.586;2023-12-22T04:30:15;11.80;85.40
84739;DHT22;74969;44.836;-0.586;2023-12-22T04:32:40;11.80;85.50
84739;DHT22;74969;44.836;-0.586;2023-12-22T04:35:06;11.80;85.50
84739;DHT22;74969;44.836;-0.586;2023-12-22T04:37:32;11.80;85.60
84739;DHT22;74969;44.836;-0.586;2023-12-22T04:39:58;11.80;85.80
84739;DHT22;74969;44.836;-0.586;2023-12-22T04:42:24;11.80;85.80
84739;DHT22;74969;44.836;-0.586;2023-12-22T04:44:51;11.80;85.70
84739;DHT22;74969;44.836;-0.586;2023-12-22T04:47:17;11.80;85.80
84739;DHT22;74969;44.836;-0.586;2023-12-22T04:49:42;11.80;85.70
84739;DHT22;74969;44.836;-0.586;2023-12-22T04:52:08;11.80;85.80
84739;DHT22;74969;44.836;-0.586;2023-12-22T04:54:34;11.80;85.80
84739;DHT22;74969;44.836;-0.586;2023-12-22T04:56:59;11.70;85.80
84739;DHT22;74969;44.836;-0.586;2023-12-22T04:59:25;11.70;85.90
84739;DHT22;74969;44.836;-0.586;2023-12-22T05:01:51;11.70;86.00
84739;DHT22;74969;44.836;-0.586;2023-12-22T05:04:16;11.70;86.10
84739;DHT22;74969;44.836;-0.586;2023-12-22T05:06:43;11.70;86.20
84739;DHT22;74969;44.836;-0.586;2023-12-22T05:09:08;11.70;86.20
84739;DHT22;74969;44.836;-0.586;2023-12-22T05:11:34;11.80;86.20
84739;DHT22;74969;44.836;-0.586;2023-12-22T05:14:00;11.80;86.10
84739;DHT22;74969;44.836;-0.586;2023-12-22T05:16:26;11.80;85.80
84739;DHT22;74969;44.836;-0.586;2023-12-22T05:18:51;11.80;85.90
84739;DHT22;74969;44.836;-0.586;2023-12-22T05:21:17;11.80;85.70
84739;DHT22;74969;44.836;-0.586;2023-12-22T05:23:43;11.80;85.80
84739;DHT22;74969;44.836;-0.586;2023-12-22T05:26:08;11.80;85.70
84739;DHT22;74969;44.836;-0.586;2023-12-22T05:28:34;11.80;85.70
84739;DHT22;74969;44.836;-0.586;2023-12-22T05:30:59;11.80;85.60
84739;DHT22;74969;44.836;-0.586;2023-12-22T05:33:25;11.90;85.70
84739;DHT22;74969;44.836;-0.586;2023-12-22T05:35:52;11.90;85.80
84739;DHT22;74969;44.836;-0.586;2023-12-22T05:38:17;11.90;85.80
84739;DHT22;74969;44.836;-0.586;2023-12-22T05:40:43;11.90;85.80
84739;DHT22;74969;44.836;-0.586;2023-12-22T05:43:09;11.90;85.80
84739;DHT22;74969;44.836;-0.586;2023-12-22T05:45:34;11.90;85.80
84739;DHT22;74969;44.836;-0.586;2023-12-22T05:48:00;11.90;85.90
84739;DHT22;74969;44.836;-0.586;2023-12-22T05:50:26;11.90;85.80
84739;DHT22;74969;44.836;-0.586;2023-12-22T05:52:51;12.00;85.70
84739;DHT22;74969;44.836;-0.586;2023-12-22T05:55:17;12.00;85.70
84739;DHT22;74969;44.836;-0.586;2023-12-22T05:57:43;11.90;85.70
84739;DHT22;74969;44.836;-0.586;2023-12-22T06:00:09;11.90;85.70
84739;DHT22;74969;44.836;-0.586;2023-12-22T06:02:36;12.00;85.60
84739;DHT22;74969;44.836;-0.586;2023-12-22T06:05:02;12.00;85.60
84739;DHT22;74969;44.836;-0.586;2023-12-22T06:07:28;12.00;85.60
84739;DHT22;74969;44.836;-0.586;2023-12-22T06:09:54;12.00;85.60
84739;DHT22;74969;44.836;-0.586;2023-12-22T06:12:20;12.00;85.60
84739;DHT22;74969;44.836;-0.586;2023-12-22T06:14:45;12.00;85.30
84739;DHT22;74969;44.836;-0.586;2023-12-22T06:17:11;12.00;85.40
84739;DHT22;74969;44.836;-0.586;2023-12-22T06:19:36;11.90;85.50
84739;DHT22;74969;44.836;-0.586;2023-12-22T06:22:02;11.90;85.80
84739;DHT22;74969;44.836;-0.586;2023-12-22T06:24:28;11.90;85.90
84739;DHT22;74969;44.836;-0.586;2023-12-22T06:26:54;11.90;86.00
84739;DHT22;74969;44.836;-0.586;2023-12-22T06:29:19;11.90;86.20
84739;DHT22;74969;44.836;-0.586;2023-12-22T06:31:45;11.90;86.20
84739;DHT22;74969;44.836;-0.586;2023-12-22T06:34:16;11.90;86.20
84739;DHT22;74969;44.836;-0.586;2023-12-22T06:36:41;11.90;86.10
84739;DHT22;74969;44.836;-0.586;2023-12-22T06:39:08;11.90;86.10
84739;DHT22;74969;44.836;-0.586;2023-12-22T06:41:33;11.90;85.90
84739;DHT22;74969;44.836;-0.586;2023-12-22T06:43:59;11.90;85.70
84739;DHT22;74969;44.836;-0.586;2023-12-22T06:46:25;11.90;85.60
84739;DHT22;74969;44.836;-0.586;2023-12-22T06:48:52;11.90;85.70
84739;DHT22;74969;44.836;-0.586;2023-12-22T06:51:26;11.90;85.80
84739;DHT22;74969;44.836;-0.586;2023-12-22T06:53:52;11.90;85.90
84739;DHT22;74969;44.836;-0.586;2023-12-22T06:56:23;11.90;86.00
84739;DHT22;74969;44.836;-0.586;2023-12-22T06:58:50;11.90;86.00
84739;DHT22;74969;44.836;-0.586;2023-12-22T07:03:46;11.90;86.20
84739;DHT22;74969;44.836;-0.586;2023-12-22T07:06:14;11.90;86.20
84739;DHT22;74969;44.836;-0.586;2023-12-22T07:08:39;11.90;86.20
84739;DHT22;74969;44.836;-0.586;2023-12-22T07:11:05;11.90;86.00
84739;DHT22;74969;44.836;-0.586;2023-12-22T07:13:31;11.90;85.80
84739;DHT22;74969;44.836;-0.586;2023-12-22T07:15:56;11.90;85.60
84739;DHT22;74969;44.836;-0.586;2023-12-22T07:18:22;11.90;85.40
84739;DHT22;74969;44.836;-0.586;2023-12-22T07:20:47;11.90;85.30
84739;DHT22;74969;44.836;-0.586;2023-12-22T07:23:14;11.80;85.30
84739;DHT22;74969;44.836;-0.586;2023-12-22T07:25:39;11.90;85.40
84739;DHT22;74969;44.836;-0.586;2023-12-22T07:28:06;11.90;85.30
84739;DHT22;74969;44.836;-0.586;2023-12-22T07:30:31;11.90;85.40
84739;DHT22;74969;44.836;-0.586;2023-12-22T07:32:57;11.90;85.50
84739;DHT22;74969;44.836;-0.586;2023-12-22T07:35:22;11.90;85.60
84739;DHT22;74969;44.836;-0.586;2023-12-22T07:37:48;11.90;85.70
84739;DHT22;74969;44.836;-0.586;2023-12-22T07:40:14;11.90;85.70
84739;DHT22;74969;44.836;-0.586;2023-12-22T07:42:40;11.90;85.70
84739;DHT22;74969;44.836;-0.586;2023-12-22T07:45:06;11.90;85.70
84739;DHT22;74969;44.836;-0.586;2023-12-22T07:47:32;11.90;85.70
84739;DHT22;74969;44.836;-0.586;2023-12-22T07:49:58;12.00;85.70
84739;DHT22;74969;44.836;-0.586;2023-12-22T07:52:24;11.90;85.30
84739;DHT22;74969;44.836;-0.586;2023-12-22T07:54:49;11.90;85.20
84739;DHT22;74969;44.836;-0.586;2023-12-22T07:57:16;11.90;85.30
84739;DHT22;74969;44.836;-0.586;2023-12-22T07:59:42;11.90;85.30
84739;DHT22;74969;44.836;-0.586;2023-12-22T08:02:07;12.00;85.20
84739;DHT22;74969;44.836;-0.586;2023-12-22T08:04:33;12.00;84.90
84739;DHT22;74969;44.836;-0.586;2023-12-22T08:06:59;12.00;84.90
84739;DHT22;74969;44.836;-0.586;2023-12-22T08:09:25;12.00;85.10
84739;DHT22;74969;44.836;-0.586;2023-12-22T08:11:50;12.00;85.10
84739;DHT22;74969;44.836;-0.586;2023-12-22T08:14:18;12.00;85.20
84739;DHT22;74969;44.836;-0.586;2023-12-22T08:16:44;11.90;85.40
84739;DHT22;74969;44.836;-0.586;2023-12-22T08:19:10;12.00;85.40
84739;DHT22;74969;44.836;-0.586;2023-12-22T08:21:36;11.90;85.60
84739;DHT22;74969;44.836;-0.586;2023-12-22T08:24:01;11.90;85.70
84739;DHT22;74969;44.836;-0.586;2023-12-22T08:26:27;11.90;86.00
84739;DHT22;74969;44.836;-0.586;2023-12-22T08:28:53;11.90;86.20
84739;DHT22;74969;44.836;-0.586;2023-12-22T08:31:19;11.90;86.30
84739;DHT22;74969;44.836;-0.586;2023-12-22T08:33:44;12.00;86.30
84739;DHT22;74969;44.836;-0.586;2023-12-22T08:36:11;12.00;86.30
84739;DHT22;74969;44.836;-0.586;2023-12-22T08:38:37;12.00;86.40
84739;DHT22;74969;44.836;-0.586;2023-12-22T08:41:07;12.00;86.30
84739;DHT22;74969;44.836;-0.586;2023-12-22T08:43:33;12.10;86.00
84739;DHT22;74969;44.836;-0.586;2023-12-22T08:45:58;12.10;85.80
84739;DHT22;74969;44.836;-0.586;2023-12-22T08:48:24;12.10;85.40
84739;DHT22;74969;44.836;-0.586;2023-12-22T08:50:50;12.10;85.50
84739;DHT22;74969;44.836;-0.586;2023-12-22T08:53:15;12.10;85.70
84739;DHT22;74969;44.836;-0.586;2023-12-22T08:55:41;12.20;85.70
84739;DHT22;74969;44.836;-0.586;2023-12-22T08:58:06;12.20;85.40
84739;DHT22;74969;44.836;-0.586;2023-12-22T09:00:32;12.20;85.50
84739;DHT22;74969;44.836;-0.586;2023-12-22T09:02:58;12.20;85.20
84739;DHT22;74969;44.836;-0.586;2023-12-22T09:05:23;12.20;85.30
84739;DHT22;74969;44.836;-0.586;2023-12-22T09:07:49;12.30;85.30
84739;DHT22;74969;44.836;-0.586;2023-12-22T09:10:15;12.30;85.30
84739;DHT22;74969;44.836;-0.586;2023-12-22T09:12:40;12.30;85.40
84739;DHT22;74969;44.836;-0.586;2023-12-22T09:15:06;12.40;85.50
84739;DHT22;74969;44.836;-0.586;2023-12-22T09:17:32;12.40;85.40
84739;DHT22;74969;44.836;-0.586;2023-12-22T09:19:58;12.40;85.70
84739;DHT22;74969;44.836;-0.586;2023-12-22T09:22:24;12.40;85.70
84739;DHT22;74969;44.836;-0.586;2023-12-22T09:24:49;12.40;85.40
84739;DHT22;74969;44.836;-0.586;2023-12-22T09:27:15;12.40;85.60
84739;DHT22;74969;44.836;-0.586;2023-12-22T09:29:41;12.40;85.50
84739;DHT22;74969;44.836;-0.586;2023-12-22T09:32:07;12.40;85.50
84739;DHT22;74969;44.836;-0.586;2023-12-22T09:34:33;12.40;85.50
84739;DHT22;74969;44.836;-0.586;2023-12-22T09:36:59;12.40;85.40
84739;DHT22;74969;44.836;-0.586;2023-12-22T09:39:24;12.40;85.30
84739;DHT22;74969;44.836;-0.586;2023-12-22T09:41:51;12.40;85.10
84739;DHT22;74969;44.836;-0.586;2023-12-22T09:44:19;12.40;85.20
84739;DHT22;74969;44.836;-0.586;2023-12-22T09:46:47;12.40;85.10
84739;DHT22;74969;44.836;-0.586;2023-12-22T09:49:18;12.40;85.00
84739;DHT22;74969;44.836;-0.586;2023-12-22T09:51:44;12.40;85.20
84739;DHT22;74969;44.836;-0.586;2023-12-22T09:54:12;12.50;85.20
84739;DHT22;74969;44.836;-0.586;2023-12-22T09:56:40;12.50;85.00
84739;DHT22;74969;44.836;-0.586;2023-12-22T09:59:11;12.60;84.40
84739;DHT22;74969;44.836;-0.586;2023-12-22T10:01:44;12.60;84.60
84739;DHT22;74969;44.836;-0.586;2023-12-22T10:04:14;12.70;84.30
84739;DHT22;74969;44.836;-0.586;2023-12-22T10:06:41;12.70;84.40
84739;DHT22;74969;44.836;-0.586;2023-12-22T10:09:07;12.70;83.90
84739;DHT22;74969;44.836;-0.586;2023-12-22T10:11:36;12.70;84.10
84739;DHT22;74969;44.836;-0.586;2023-12-22T10:14:02;12.70;83.70
84739;DHT22;74969;44.836;-0.586;2023-12-22T10:16:29;12.70;83.60
84739;DHT22;74969;44.836;-0.586;2023-12-22T10:18:55;12.70;83.50
84739;DHT22;74969;44.836;-0.586;2023-12-22T10:21:22;12.70;83.60
84739;DHT22;74969;44.836;-0.586;2023-12-22T10:23:48;12.60;84.00
84739;DHT22;74969;44.836;-0.586;2023-12-22T10:26:13;12.70;84.30
84739;DHT22;74969;44.836;-0.586;2023-12-22T10:28:41;12.70;84.30
84739;DHT22;74969;44.836;-0.586;2023-12-22T10:31:06;12.70;84.00
84739;DHT22;74969;44.836;-0.586;2023-12-22T10:33:33;12.80;83.70
84739;DHT22;74969;44.836;-0.586;2023-12-22T10:35:59;12.70;83.70
84739;DHT22;74969;44.836;-0.586;2023-12-22T10:38:35;12.80;83.20
84739;DHT22;74969;44.836;-0.586;2023-12-22T10:41:05;12.70;83.60
84739;DHT22;74969;44.836;-0.586;2023-12-22T10:43:37;12.80;83.80
84739;DHT22;74969;44.836;-0.586;2023-12-22T10:46:03;12.90;83.80
84739;DHT22;74969;44.836;-0.586;2023-12-22T10:48:29;12.90;83.40
84739;DHT22;74969;44.836;-0.586;2023-12-22T10:50:55;13.00;83.20
84739;DHT22;74969;44.836;-0.586;2023-12-22T10:53:21;13.00;82.20
84739;DHT22;74969;44.836;-0.586;2023-12-22T10:55:47;13.00;82.70
84739;DHT22;74969;44.836;-0.586;2023-12-22T10:58:16;13.10;82.80
84739;DHT22;74969;44.836;-0.586;2023-12-22T11:00:45;13.20;81.90
84739;DHT22;74969;44.836;-0.586;2023-12-22T11:03:16;13.10;81.70
84739;DHT22;74969;44.836;-0.586;2023-12-22T11:05:46;13.10;82.00
84739;DHT22;74969;44.836;-0.586;2023-12-22T11:08:13;13.10;81.90
84739;DHT22;74969;44.836;-0.586;2023-12-22T11:10:42;13.10;81.80
84739;DHT22;74969;44.836;-0.586;2023-12-22T11:13:12;13.20;81.80
84739;DHT22;74969;44.836;-0.586;2023-12-22T11:15:39;13.20;81.00
84739;DHT22;74969;44.836;-0.586;2023-12-22T11:18:07;13.00;81.40
84739;DHT22;74969;44.836;-0.586;2023-12-22T11:20:35;13.00;82.20
84739;DHT22;74969;44.836;-0.586;2023-12-22T11:23:02;12.90;82.20
84739;DHT22;74969;44.836;-0.586;2023-12-22T11:25:30;12.90;82.50
84739;DHT22;74969;44.836;-0.586;2023-12-22T11:27:59;13.00;81.80
84739;DHT22;74969;44.836;-0.586;2023-12-22T11:30:26;13.00;81.30
84739;DHT22;74969;44.836;-0.586;2023-12-22T11:32:53;13.00;81.60
84739;DHT22;74969;44.836;-0.586;2023-12-22T11:35:23;13.00;81.70
84739;DHT22;74969;44.836;-0.586;2023-12-22T11:37:49;13.10;81.00
84739;DHT22;74969;44.836;-0.586;2023-12-22T11:40:15;13.00;81.70
84739;DHT22;74969;44.836;-0.586;2023-12-22T11:42:46;13.00;82.00
84739;DHT22;74969;44.836;-0.586;2023-12-22T11:45:14;13.00;82.70
84739;DHT22;74969;44.836;-0.586;2023-12-22T11:47:42;13.00;83.00
84739;DHT22;74969;44.836;-0.586;2023-12-22T11:50:11;13.00;83.00
84739;DHT22;74969;44.836;-0.586;2023-12-22T11:52:37;13.10;82.30
84739;DHT22;74969;44.836;-0.586;2023-12-22T11:55:04;13.20;82.00
84739;DHT22;74969;44.836;-0.586;2023-12-22T11:57:32;13.20;81.60
84739;DHT22;74969;44.836;-0.586;2023-12-22T12:02:24;13.10;81.90
84739;DHT22;74969;44.836;-0.586;2023-12-22T12:04:51;13.00;81.50
84739;DHT22;74969;44.836;-0.586;2023-12-22T12:10:08;12.90;81.30
84739;DHT22;74969;44.836;-0.586;2023-12-22T12:12:34;12.80;81.20
84739;DHT22;74969;44.836;-0.586;2023-12-22T12:15:13;12.90;81.50
84739;DHT22;74969;44.836;-0.586;2023-12-22T12:17:42;12.80;81.20
84739;DHT22;74969;44.836;-0.586;2023-12-22T12:20:11;12.90;81.30
84739;DHT22;74969;44.836;-0.586;2023-12-22T12:22:38;12.90;81.70
84739;DHT22;74969;44.836;-0.586;2023-12-22T12:25:08;12.90;81.00
84739;DHT22;74969;44.836;-0.586;2023-12-22T12:27:35;13.00;81.20
84739;DHT22;74969;44.836;-0.586;2023-12-22T12:30:14;13.10;80.80
84739;DHT22;74969;44.836;-0.586;2023-12-22T12:32:43;13.10;80.60
84739;DHT22;74969;44.836;-0.586;2023-12-22T12:35:12;13.20;80.70
84739;DHT22;74969;44.836;-0.586;2023-12-22T12:37:38;13.30;80.50
84739;DHT22;74969;44.836;-0.586;2023-12-22T12:40:07;13.40;80.50
84739;DHT22;74969;44.836;-0.586;2023-12-22T12:42:35;13.50;80.70
84739;DHT22;74969;44.836;-0.586;2023-12-22T12:45:04;13.70;80.80
84739;DHT22;74969;44.836;-0.586;2023-12-22T12:47:30;13.80;79.90
84739;DHT22;74969;44.836;-0.586;2023-12-22T12:49:57;13.90;79.00
84739;DHT22;74969;44.836;-0.586;2023-12-22T12:52:23;13.70;78.80
84739;DHT22;74969;44.836;-0.586;2023-12-22T12:54:51;13.60;79.30
84739;DHT22;74969;44.836;-0.586;2023-12-22T12:57:17;13.50;79.70
84739;DHT22;74969;44.836;-0.586;2023-12-22T12:59:51;13.40;79.90
84739;DHT22;74969;44.836;-0.586;2023-12-22T13:02:18;13.30;80.50
84739;DHT22;74969;44.836;-0.586;2023-12-22T13:04:44;13.40;80.70
84739;DHT22;74969;44.836;-0.586;2023-12-22T13:07:11;13.30;80.10
84739;DHT22;74969;44.836;-0.586;2023-12-22T13:09:38;13.30;80.50
84739;DHT22;74969;44.836;-0.586;2023-12-22T13:12:04;13.20;80.20
84739;DHT22;74969;44.836;-0.586;2023-12-22T13:14:30;13.20;80.80
84739;DHT22;74969;44.836;-0.586;2023-12-22T13:16:57;13.10;80.80
84739;DHT22;74969;44.836;-0.586;2023-12-22T13:19:24;13.10;81.00
84739;DHT22;74969;44.836;-0.586;2023-12-22T13:21:53;13.10;80.20
84739;DHT22;74969;44.836;-0.586;2023-12-22T13:24:19;13.10;80.00
84739;DHT22;74969;44.836;-0.586;2023-12-22T13:26:46;13.00;79.20
84739;DHT22;74969;44.836;-0.586;2023-12-22T13:29:13;12.90;79.80
84739;DHT22;74969;44.836;-0.586;2023-12-22T13:31:40;13.00;79.70
84739;DHT22;74969;44.836;-0.586;2023-12-22T13:34:12;13.00;80.10
84739;DHT22;74969;44.836;-0.586;2023-12-22T13:36:39;13.10;79.40
84739;DHT22;74969;44.836;-0.586;2023-12-22T13:39:05;13.10;79.60
84739;DHT22;74969;44.836;-0.586;2023-12-22T13:41:40;13.20;79.30
84739;DHT22;74969;44.836;-0.586;2023-12-22T13:44:07;13.20;79.10
84739;DHT22;74969;44.836;-0.586;2023-12-22T13:46:33;13.30;78.50
84739;DHT22;74969;44.836;-0.586;2023-12-22T13:49:05;13.30;78.30
84739;DHT22;74969;44.836;-0.586;2023-12-22T13:51:42;13.40;78.10
84739;DHT22;74969;44.836;-0.586;2023-12-22T13:54:08;13.40;78.70
84739;DHT22;74969;44.836;-0.586;2023-12-22T13:56:35;13.20;78.50
84739;DHT22;74969;44.836;-0.586;2023-12-22T13:59:02;13.00;78.60
84739;DHT22;74969;44.836;-0.586;2023-12-22T14:01:28;12.90;79.70
84739;DHT22;74969;44.836;-0.586;2023-12-22T14:03:53;12.70;80.00
84739;DHT22;74969;44.836;-0.586;2023-12-22T14:06:20;12.70;80.10
84739;DHT22;74969;44.836;-0.586;2023-12-22T14:08:46;12.60;80.60
84739;DHT22;74969;44.836;-0.586;2023-12-22T14:11:12;12.60;79.80
84739;DHT22;74969;44.836;-0.586;2023-12-22T14:13:38;12.50;79.50
84739;DHT22;74969;44.836;-0.586;2023-12-22T14:16:06;12.40;79.70
84739;DHT22;74969;44.836;-0.586;2023-12-22T14:18:32;12.40;80.70
84739;DHT22;74969;44.836;-0.586;2023-12-22T14:20:58;12.40;80.80
84739;DHT22;74969;44.836;-0.586;2023-12-22T14:23:24;12.50;81.20
84739;DHT22;74969;44.836;-0.586;2023-12-22T14:25:50;12.40;79.80
84739;DHT22;74969;44.836;-0.586;2023-12-22T14:28:16;12.40;80.10
84739;DHT22;74969;44.836;-0.586;2023-12-22T14:30:41;12.30;80.50
84739;DHT22;74969;44.836;-0.586;2023-12-22T14:33:08;12.30;80.80
84739;DHT22;74969;44.836;-0.586;2023-12-22T14:35:33;12.30;80.50
84739;DHT22;74969;44.836;-0.586;2023-12-22T14:37:59;12.30;80.90
84739;DHT22;74969;44.836;-0.586;2023-12-22T14:40:25;12.30;80.30
84739;DHT22;74969;44.836;-0.586;2023-12-22T14:42:50;12.20;80.10
84739;DHT22;74969;44.836;-0.586;2023-12-22T14:45:16;12.20;80.60
84739;DHT22;74969;44.836;-0.586;2023-12-22T14:47:42;12.20;80.40
84739;DHT22;74969;44.836;-0.586;2023-12-22T14:50:08;12.20;80.70
84739;DHT22;74969;44.836;-0.586;2023-12-22T14:52:33;12.20;80.60
84739;DHT22;74969;44.836;-0.586;2023-12-22T14:54:59;12.20;80.60
84739;DHT22;74969;44.836;-0.586;2023-12-22T14:57:25;12.20;80.20
84739;DHT22;74969;44.836;-0.586;2023-12-22T14:59:52;12.20;80.40
84739;DHT22;74969;44.836;-0.586;2023-12-22T15:02:18;12.20;80.50
84739;DHT22;74969;44.836;-0.586;2023-12-22T15:04:44;12.20;79.90
84739;DHT22;74969;44.836;-0.586;2023-12-22T15:07:14;12.20;80.20
84739;DHT22;74969;44.836;-0.586;2023-12-22T15:09:39;12.20;80.20
84739;DHT22;74969;44.836;-0.586;2023-12-22T15:12:05;12.20;80.50
84739;DHT22;74969;44.836;-0.586;2023-12-22T15:14:31;12.30;80.20
84739;DHT22;74969;44.836;-0.586;2023-12-22T15:16:57;12.30;80.00
84739;DHT22;74969;44.836;-0.586;2023-12-22T15:19:22;12.20;79.90